sensor_id;sensor_type;location;lat;lon;timestamp;pressure;altitude;pressure_sealevel;temperature;humidity
39223;BME280;24936;46.328;11.026;2023-10-31T00:01:11;92838.34;;;8.68;100.00
39223;BME280;24936;46.328;11.026;2023-10-31T00:03:36;92842.78;;;8.60;100.00
39223;BME280;24936;46.328;11.026;2023-10-31T00:06:02;92852.78;;;8.64;100.00
39223;BME280;24936;46.328;11.026;2023-10-31T00:08:27;92855.25;;;8.57;100.00
39223;BME280;24936;46.328;11.026;2023-10-31T00:10:53;92849.69;;;8.69;100.00
39223;BME280;24936;46.328;11.026;2023-10-31T00:13:18;92864.44;;;8.62;100.00
39223;BME280;24936;46.328;11.026;2023-10-31T00:15:44;92875.28;;;8.50;100.00
39223;BME280;24936;46.328;11.026;2023-10-31T00:18:09;92848.03;;;8.60;100.00
39223;BME280;24936;46.328;11.026;2023-10-31T00:20:35;92862.63;;;8.54;100.00
39223;BME280;24936;46.328;11.026;2023-10-31T00:23:00;92878.22;;;8.55;100.00
39223;BME280;24936;46.328;11.026;2023-10-31T00:25:25;92867.22;;;8.60;100.00
39223;BME280;24936;46.328;11.026;2023-10-31T00:27:51;92871.81;;;8.58;100.00
39223;BME280;24936;46.328;11.026;2023-10-31T00:30:16;92884.78;;;8.51;100.00
39223;BME280;24936;46.328;11.026;2023-10-31T00:32:42;92872.31;;;8.53;100.00
39223;BME280;24936;46.328;11.026;2023-10-31T00:35:07;92864.28;;;8.63;100.00
39223;BME280;24936;46.328;11.026;2023-10-31T00:37:33;92870.66;;;8.69;100.00
39223;BME280;24936;46.328;11.026;2023-10-31T00:39:58;92881.16;;;8.61;100.00
39223;BME280;24936;46.328;11.026;2023-10-31T00:42:24;92879.88;;;8.56;100.00
39223;BME280;24936;46.328;11.026;2023-10-31T00:44:49;92871.66;;;8.68;100.00
39223;BME280;24936;46.328;11.026;2023-10-31T00:47:15;92886.22;;;8.70;100.00
39223;BME280;24936;46.328;11.026;2023-10-31T00:49:41;92888.19;;;8.77;100.00
39223;BME280;24936;46.328;11.026;2023-10-31T00:52:06;92879.81;;;8.73;100.00
39223;BME280;24936;46.328;11.026;2023-10-31T00:54:32;92877.38;;;8.71;100.00
39223;BME280;24936;46.328;11.026;2023-10-31T00:56:57;92881.63;;;8.72;100.00
39223;BME280;24936;46.328;11.026;2023-10-31T00:59:22;92884.72;;;8.76;100.00
39223;BME280;24936;46.328;11.026;2023-10-31T01:01:49;92880.13;;;8.78;100.00
39223;BME280;24936;46.328;11.026;2023-10-31T01:04:14;92884.72;;;8.76;100.00
39223;BME280;24936;46.328;11.026;2023-10-31T01:06:43;92888.66;;;8.72;100.00
39223;BME280;24936;46.328;11.026;2023-10-31T01:09:09;92889.31;;;8.82;100.00
39223;BME280;24936;46.328;11.026;2023-10-31T01:11:35;92887.66;;;8.98;100.00
39223;BME280;24936;46.328;11.026;2023-10-31T01:14:00;92892.25;;;8.96;100.00
39223;BME280;24936;46.328;11.026;2023-10-31T01:16:26;92879.78;;;8.90;100.00
39223;BME280;24936;46.328;11.026;2023-10-31T01:18:51;92880.94;;;8.87;100.00
39223;BME280;24936;46.328;11.026;2023-10-31T01:21:16;92870.97;;;8.82;100.00
39223;BME280;24936;46.328;11.026;2023-10-31T01:23:42;92876.03;;;8.84;100.00
39223;BME280;24936;46.328;11.026;2023-10-31T01:26:07;92879.47;;;8.84;100.00
39223;BME280;24936;46.328;11.026;2023-10-31T01:28:33;92878.47;;;8.85;100.00
39223;BME280;24936;46.328;11.026;2023-10-31T01:30:58;92878.81;;;8.82;100.00
39223;BME280;24936;46.328;11.026;2023-10-31T01:33:23;92880.09;;;8.86;100.00
39223;BME280;24936;46.328;11.026;2023-10-31T01:35:49;92875.66;;;8.95;100.00
39223;BME280;24936;46.328;11.026;2023-10-31T01:38:14;92880.41;;;9.00;100.00
39223;BME280;24936;46.328;11.026;2023-10-31T01:40:40;92888.94;;;9.02;100.00
39223;BME280;24936;46.328;11.026;2023-10-31T01:43:05;92889.75;;;9.02;100.00
39223;BME280;24936;46.328;11.026;2023-10-31T01:45:31;92883.97;;;9.15;100.00
39223;BME280;24936;46.328;11.026;2023-10-31T01:47:56;92875.00;;;9.41;100.00
39223;BME280;24936;46.328;11.026;2023-10-31T01:50:22;92875.19;;;9.40;100.00
39223;BME280;24936;46.328;11.026;2023-10-31T01:52:48;92868.34;;;9.62;100.00
39223;BME280;24936;46.328;11.026;2023-10-31T01:55:14;92869.00;;;9.64;100.00
39223;BME280;24936;46.328;11.026;2023-10-31T01:57:40;92874.75;;;9.59;100.00
39223;BME280;24936;46.328;11.026;2023-10-31T02:00:06;92870.97;;;9.62;100.00
39223;BME280;24936;46.328;11.026;2023-10-31T02:02:33;92867.88;;;9.58;100.00
39223;BME280;24936;46.328;11.026;2023-10-31T02:05:00;92881.06;;;9.73;100.00
39223;BME280;24936;46.328;11.026;2023-10-31T02:07:26;92888.06;;;9.58;100.00
39223;BME280;24936;46.328;11.026;2023-10-31T02:09:52;92891.78;;;9.32;100.00
39223;BME280;24936;46.328;11.026;2023-10-31T02:12:36;92894.97;;;9.19;100.00
39223;BME280;24936;46.328;11.026;2023-10-31T02:15:02;92895.28;;;9.16;100.00
39223;BME280;24936;46.328;11.026;2023-10-31T02:17:28;92902.50;;;9.14;100.00
39223;BME280;24936;46.328;11.026;2023-10-31T02:19:54;92896.44;;;9.13;100.00
39223;BME280;24936;46.328;11.026;2023-10-31T02:22:19;92894.81;;;9.12;100.00
39223;BME280;24936;46.328;11.026;2023-10-31T02:24:45;92901.34;;;9.16;100.00
39223;BME280;24936;46.328;11.026;2023-10-31T02:27:10;92915.47;;;9.15;100.00
39223;BME280;24936;46.328;11.026;2023-10-31T02:29:36;92905.63;;;9.17;100.00
39223;BME280;24936;46.328;11.026;2023-10-31T02:32:02;92895.13;;;9.17;100.00
39223;BME280;24936;46.328;11.026;2023-10-31T02:34:27;92893.31;;;9.18;100.00
39223;BME280;24936;46.328;11.026;2023-10-31T02:36:53;92904.16;;;9.15;100.00
39223;BME280;24936;46.328;11.026;2023-10-31T02:39:18;92897.41;;;9.21;100.00
39223;BME280;24936;46.328;11.026;2023-10-31T02:41:44;92888.50;;;9.30;100.00
39223;BME280;24936;46.328;11.026;2023-10-31T02:44:09;92883.09;;;9.31;100.00
39223;BME280;24936;46.328;11.026;2023-10-31T02:46:38;92886.91;;;9.21;100.00
39223;BME280;24936;46.328;11.026;2023-10-31T02:49:04;92886.25;;;9.18;100.00
39223;BME280;24936;46.328;11.026;2023-10-31T02:51:29;92886.22;;;9.27;100.00
39223;BME280;24936;46.328;11.026;2023-10-31T02:53:54;92887.84;;;9.36;100.00
39223;BME280;24936;46.328;11.026;2023-10-31T02:56:20;92888.31;;;9.40;100.00
39223;BME280;24936;46.328;11.026;2023-10-31T02:58:46;92883.53;;;9.43;100.00
39223;BME280;24936;46.328;11.026;2023-10-31T03:01:11;92885.50;;;9.41;100.00
39223;BME280;24936;46.328;11.026;2023-10-31T03:03:37;92877.63;;;9.41;100.00
39223;BME280;24936;46.328;11.026;2023-10-31T03:06:04;92874.38;;;9.31;100.00
39223;BME280;24936;46.328;11.026;2023-10-31T03:08:29;92890.53;;;9.20;100.00
39223;BME280;24936;46.328;11.026;2023-10-31T03:10:55;92893.47;;;9.25;100.00
39223;BME280;24936;46.328;11.026;2023-10-31T03:13:20;92890.78;;;9.33;100.00
39223;BME280;24936;46.328;11.026;2023-10-31T03:15:46;92896.84;;;9.33;100.00
39223;BME280;24936;46.328;11.026;2023-10-31T03:18:12;92896.84;;;9.33;100.00
39223;BME280;24936;46.328;11.026;2023-10-31T03:20:39;92888.81;;;9.35;100.00
39223;BME280;24936;46.328;11.026;2023-10-31T03:23:05;92894.09;;;9.27;100.00
39223;BME280;24936;46.328;11.026;2023-10-31T03:25:30;92890.66;;;9.26;100.00
39223;BME280;24936;46.328;11.026;2023-10-31T03:27:56;92887.56;;;9.14;100.00
39223;BME280;24936;46.328;11.026;2023-10-31T03:30:21;92884.16;;;9.14;100.00
39223;BME280;24936;46.328;11.026;2023-10-31T03:32:47;92876.75;;;9.17;100.00
39223;BME280;24936;46.328;11.026;2023-10-31T03:35:12;92872.94;;;9.28;100.00
39223;BME280;24936;46.328;11.026;2023-10-31T03:37:38;92866.34;;;9.32;100.00
39223;BME280;24936;46.328;11.026;2023-10-31T03:40:08;92871.09;;;9.37;100.00
39223;BME280;24936;46.328;11.026;2023-10-31T03:42:33;92865.13;;;9.52;100.00
39223;BME280;24936;46.328;11.026;2023-10-31T03:44:59;92865.44;;;9.48;100.00
39223;BME280;24936;46.328;11.026;2023-10-31T03:47:24;92860.84;;;9.51;100.00
39223;BME280;24936;46.328;11.026;2023-10-31T03:49:50;92865.53;;;9.63;100.00
39223;BME280;24936;46.328;11.026;2023-10-31T03:52:15;92864.72;;;9.63;100.00
39223;BME280;24936;46.328;11.026;2023-10-31T03:54:41;92863.09;;;9.62;100.00
39223;BME280;24936;46.328;11.026;2023-10-31T03:57:06;92846.72;;;9.52;100.00
39223;BME280;24936;46.328;11.026;2023-10-31T03:59:31;92845.91;;;9.51;100.00
39223;BME280;24936;46.328;11.026;2023-10-31T04:01:57;92837.03;;;9.52;100.00
39223;BME280;24936;46.328;11.026;2023-10-31T04:04:22;92840.00;;;9.49;100.00
39223;BME280;24936;46.328;11.026;2023-10-31T04:06:48;92847.31;;;9.62;100.00
39223;BME280;24936;46.328;11.026;2023-10-31T04:09:13;92841.13;;;9.55;100.00
39223;BME280;24936;46.328;11.026;2023-10-31T04:11:39;92838.47;;;9.63;100.00
39223;BME280;24936;46.328;11.026;2023-10-31T04:14:05;92832.22;;;9.64;100.00
39223;BME280;24936;46.328;11.026;2023-10-31T04:16:31;92826.13;;;9.63;100.00
39223;BME280;24936;46.328;11.026;2023-10-31T04:18:56;92822.75;;;9.78;100.00
39223;BME280;24936;46.328;11.026;2023-10-31T04:21:22;92825.78;;;9.67;100.00
39223;BME280;24936;46.328;11.026;2023-10-31T04:23:47;92825.59;;;9.68;100.00
39223;BME280;24936;46.328;11.026;2023-10-31T04:26:13;92832.88;;;9.66;100.00
39223;BME280;24936;46.328;11.026;2023-10-31T04:28:39;92822.63;;;9.71;100.00
39223;BME280;24936;46.328;11.026;2023-10-31T04:31:04;92823.47;;;9.72;100.00
39223;BME280;24936;46.328;11.026;2023-10-31T04:33:30;92816.84;;;9.76;100.00
39223;BME280;24936;46.328;11.026;2023-10-31T04:35:55;92818.00;;;9.82;100.00
39223;BME280;24936;46.328;11.026;2023-10-31T04:38:21;92806.72;;;9.73;100.00
39223;BME280;24936;46.328;11.026;2023-10-31T04:40:46;92795.56;;;9.71;100.00
39223;BME280;24936;46.328;11.026;2023-10-31T04:43:12;92796.47;;;9.78;100.00
39223;BME280;24936;46.328;11.026;2023-10-31T04:45:37;92801.09;;;9.76;100.00
39223;BME280;24936;46.328;11.026;2023-10-31T04:48:03;92784.97;;;9.79;100.00
39223;BME280;24936;46.328;11.026;2023-10-31T04:50:28;92779.25;;;9.75;100.00
39223;BME280;24936;46.328;11.026;2023-10-31T04:52:54;92777.16;;;9.71;100.00
39223;BME280;24936;46.328;11.026;2023-10-31T04:55:19;92774.34;;;9.72;100.00
39223;BME280;24936;46.328;11.026;2023-10-31T04:57:44;92772.72;;;9.71;100.00
39223;BME280;24936;46.328;11.026;2023-10-31T05:00:10;92772.69;;;9.79;100.00
39223;BME280;24936;46.328;11.026;2023-10-31T05:02:36;92772.50;;;9.81;100.00
39223;BME280;24936;46.328;11.026;2023-10-31T05:05:02;92771.19;;;9.77;100.00
39223;BME280;24936;46.328;11.026;2023-10-31T05:07:27;92775.53;;;9.70;100.00
39223;BME280;24936;46.328;11.026;2023-10-31T05:09:53;92775.69;;;9.68;100.00
39223;BME280;24936;46.328;11.026;2023-10-31T05:12:18;92776.72;;;9.67;100.00
39223;BME280;24936;46.328;11.026;2023-10-31T05:14:44;92776.06;;;9.65;100.00
39223;BME280;24936;46.328;11.026;2023-10-31T05:17:09;92768.13;;;9.73;100.00
39223;BME280;24936;46.328;11.026;2023-10-31T05:19:34;92767.47;;;9.71;100.00
39223;BME280;24936;46.328;11.026;2023-10-31T05:22:00;92776.00;;;9.73;100.00
39223;BME280;24936;46.328;11.026;2023-10-31T05:24:25;92769.41;;;9.77;100.00
39223;BME280;24936;46.328;11.026;2023-10-31T05:26:51;92764.31;;;9.76;100.00
39223;BME280;24936;46.328;11.026;2023-10-31T05:29:17;92758.66;;;9.64;100.00
39223;BME280;24936;46.328;11.026;2023-10-31T05:31:42;92770.84;;;9.57;100.00
39223;BME280;24936;46.328;11.026;2023-10-31T05:34:08;92787.31;;;9.51;100.00
39223;BME280;24936;46.328;11.026;2023-10-31T05:36:34;92772.38;;;9.51;100.00
39223;BME280;24936;46.328;11.026;2023-10-31T05:38:59;92784.34;;;9.54;100.00
39223;BME280;24936;46.328;11.026;2023-10-31T05:41:25;92788.31;;;9.49;100.00
39223;BME280;24936;46.328;11.026;2023-10-31T05:43:50;92795.47;;;9.56;100.00
39223;BME280;24936;46.328;11.026;2023-10-31T05:46:16;92784.41;;;9.69;100.00
39223;BME280;24936;46.328;11.026;2023-10-31T05:48:44;92777.97;;;9.71;100.00
39223;BME280;24936;46.328;11.026;2023-10-31T05:51:14;92777.59;;;9.59;100.00
39223;BME280;24936;46.328;11.026;2023-10-31T05:53:40;92776.81;;;9.74;100.00
39223;BME280;24936;46.328;11.026;2023-10-31T05:56:07;92783.13;;;9.64;100.00
39223;BME280;24936;46.328;11.026;2023-10-31T05:58:33;92791.97;;;9.63;100.00
39223;BME280;24936;46.328;11.026;2023-10-31T06:00:58;92799.59;;;9.58;100.00
39223;BME280;24936;46.328;11.026;2023-10-31T06:03:24;92794.06;;;9.68;100.00
39223;BME280;24936;46.328;11.026;2023-10-31T06:05:49;92800.56;;;9.57;100.00
39223;BME280;24936;46.328;11.026;2023-10-31T06:08:15;92816.34;;;9.57;100.00
39223;BME280;24936;46.328;11.026;2023-10-31T06:10:40;92813.53;;;9.59;100.00
39223;BME280;24936;46.328;11.026;2023-10-31T06:13:06;92821.19;;;9.69;100.00
39223;BME280;24936;46.328;11.026;2023-10-31T06:15:31;92820.59;;;9.58;100.00
39223;BME280;24936;46.328;11.026;2023-10-31T06:17:57;92835.53;;;9.58;100.00
39223;BME280;24936;46.328;11.026;2023-10-31T06:20:23;92835.53;;;9.58;100.00
39223;BME280;24936;46.328;11.026;2023-10-31T06:22:49;92834.50;;;9.67;100.00
39223;BME280;24936;46.328;11.026;2023-10-31T06:25:14;92825.66;;;9.60;100.00
39223;BME280;24936;46.328;11.026;2023-10-31T06:27:40;92835.50;;;9.66;100.00
39223;BME280;24936;46.328;11.026;2023-10-31T06:30:05;92846.59;;;9.76;100.00
39223;BME280;24936;46.328;11.026;2023-10-31T06:32:31;92840.25;;;9.62;100.00
39223;BME280;24936;46.328;11.026;2023-10-31T06:34:56;92854.91;;;9.57;100.00
39223;BME280;24936;46.328;11.026;2023-10-31T06:37:22;92846.88;;;9.58;100.00
39223;BME280;24936;46.328;11.026;2023-10-31T06:39:47;92851.00;;;9.53;100.00
39223;BME280;24936;46.328;11.026;2023-10-31T06:42:13;92850.88;;;9.69;100.00
39223;BME280;24936;46.328;11.026;2023-10-31T06:44:38;92846.81;;;9.67;100.00
39223;BME280;24936;46.328;11.026;2023-10-31T06:47:04;92837.63;;;9.62;100.00
39223;BME280;24936;46.328;11.026;2023-10-31T06:49:29;92841.09;;;9.63;100.00
39223;BME280;24936;46.328;11.026;2023-10-31T06:51:55;92846.34;;;9.63;100.00
39223;BME280;24936;46.328;11.026;2023-10-31T06:54:20;92862.56;;;9.67;100.00
39223;BME280;24936;46.328;11.026;2023-10-31T06:56:47;92877.66;;;9.64;100.00
39223;BME280;24936;46.328;11.026;2023-10-31T06:59:17;92885.41;;;9.66;100.00
39223;BME280;24936;46.328;11.026;2023-10-31T07:01:43;92894.59;;;9.62;100.00
39223;BME280;24936;46.328;11.026;2023-10-31T07:04:10;92892.63;;;9.64;100.00
39223;BME280;24936;46.328;11.026;2023-10-31T07:06:41;92901.84;;;9.60;100.00
39223;BME280;24936;46.328;11.026;2023-10-31T07:09:07;92906.94;;;9.53;100.00
39223;BME280;24936;46.328;11.026;2023-10-31T07:11:33;92900.41;;;9.49;100.00
39223;BME280;24936;46.328;11.026;2023-10-31T07:14:02;92901.22;;;9.49;100.00
39223;BME280;24936;46.328;11.026;2023-10-31T07:16:28;92895.16;;;9.49;100.00
39223;BME280;24936;46.328;11.026;2023-10-31T07:18:53;92907.47;;;9.48;100.00
39223;BME280;24936;46.328;11.026;2023-10-31T07:21:19;92925.00;;;9.56;100.00
39223;BME280;24936;46.328;11.026;2023-10-31T07:23:44;92913.00;;;9.62;100.00
39223;BME280;24936;46.328;11.026;2023-10-31T07:26:10;92921.22;;;9.59;100.00
39223;BME280;24936;46.328;11.026;2023-10-31T07:28:35;92916.00;;;9.51;100.00
39223;BME280;24936;46.328;11.026;2023-10-31T07:31:01;92913.94;;;9.69;100.00
39223;BME280;24936;46.328;11.026;2023-10-31T07:33:27;92925.47;;;9.60;100.00
39223;BME280;24936;46.328;11.026;2023-10-31T07:35:52;92936.69;;;9.54;100.00
39223;BME280;24936;46.328;11.026;2023-10-31T07:38:17;92939.31;;;9.54;100.00
39223;BME280;24936;46.328;11.026;2023-10-31T07:40:43;92952.06;;;9.65;100.00
39223;BME280;24936;46.328;11.026;2023-10-31T07:43:08;92950.41;;;9.64;100.00
39223;BME280;24936;46.328;11.026;2023-10-31T07:45:34;92966.13;;;9.72;100.00
39223;BME280;24936;46.328;11.026;2023-10-31T07:48:01;92975.34;;;9.68;100.00
39223;BME280;24936;46.328;11.026;2023-10-31T07:50:26;92984.94;;;9.44;100.00
39223;BME280;24936;46.328;11.026;2023-10-31T07:52:52;92976.19;;;8.87;100.00
39223;BME280;24936;46.328;11.026;2023-10-31T07:55:18;92977.81;;;8.39;100.00
39223;BME280;24936;46.328;11.026;2023-10-31T07:57:44;93007.06;;;8.01;100.00
39223;BME280;24936;46.328;11.026;2023-10-31T08:00:11;93025.25;;;7.60;100.00
39223;BME280;24936;46.328;11.026;2023-10-31T08:02:37;93033.81;;;7.35;100.00
39223;BME280;24936;46.328;11.026;2023-10-31T08:05:03;93065.16;;;7.27;100.00
39223;BME280;24936;46.328;11.026;2023-10-31T08:07:28;93082.13;;;7.23;100.00
39223;BME280;24936;46.328;11.026;2023-10-31T08:09:58;93103.78;;;7.07;100.00
39223;BME280;24936;46.328;11.026;2023-10-31T08:12:24;93131.06;;;7.04;100.00
39223;BME280;24936;46.328;11.026;2023-10-31T08:14:49;93159.25;;;6.93;100.00
39223;BME280;24936;46.328;11.026;2023-10-31T08:17:14;93187.94;;;6.84;100.00
39223;BME280;24936;46.328;11.026;2023-10-31T08:19:40;93191.66;;;6.82;100.00
39223;BME280;24936;46.328;11.026;2023-10-31T08:22:06;93208.03;;;6.66;100.00
39223;BME280;24936;46.328;11.026;2023-10-31T08:24:31;93191.25;;;6.58;100.00
39223;BME280;24936;46.328;11.026;2023-10-31T08:26:58;93210.16;;;6.52;100.00
39223;BME280;24936;46.328;11.026;2023-10-31T08:29:23;93224.19;;;6.51;100.00
39223;BME280;24936;46.328;11.026;2023-10-31T08:31:49;93228.59;;;6.51;100.00
39223;BME280;24936;46.328;11.026;2023-10-31T08:34:14;93233.28;;;6.47;100.00
39223;BME280;24936;46.328;11.026;2023-10-31T08:36:40;93237.84;;;6.45;100.00
39223;BME280;24936;46.328;11.026;2023-10-31T08:39:05;93237.69;;;6.47;100.00
39223;BME280;24936;46.328;11.026;2023-10-31T08:41:31;93235.91;;;6.47;100.00
39223;BME280;24936;46.328;11.026;2023-10-31T08:43:56;93242.25;;;6.45;100.00
39223;BME280;24936;46.328;11.026;2023-10-31T08:46:23;93253.13;;;6.40;100.00
39223;BME280;24936;46.328;11.026;2023-10-31T08:48:48;93250.66;;;6.38;100.00
39223;BME280;24936;46.328;11.026;2023-10-31T08:51:14;93254.09;;;6.39;100.00
39223;BME280;24936;46.328;11.026;2023-10-31T08:53:39;93247.94;;;6.30;100.00
39223;BME280;24936;46.328;11.026;2023-10-31T08:56:05;93235.56;;;6.32;100.00
39223;BME280;24936;46.328;11.026;2023-10-31T08:58:31;93216.59;;;6.30;100.00
39223;BME280;24936;46.328;11.026;2023-10-31T09:00:56;93205.06;;;6.23;100.00
39223;BME280;24936;46.328;11.026;2023-10-31T09:03:22;93207.97;;;6.20;100.00
39223;BME280;24936;46.328;11.026;2023-10-31T09:05:47;93220.34;;;6.18;100.00
39223;BME280;24936;46.328;11.026;2023-10-31T09:08:12;93237.53;;;6.20;100.00
39223;BME280;24936;46.328;11.026;2023-10-31T09:10:38;93257.63;;;6.20;100.00
39223;BME280;24936;46.328;11.026;2023-10-31T09:13:04;93266.97;;;6.12;100.00
39223;BME280;24936;46.328;11.026;2023-10-31T09:15:30;93262.84;;;6.20;100.00
39223;BME280;24936;46.328;11.026;2023-10-31T09:17:55;93285.78;;;6.26;100.00
39223;BME280;24936;46.328;11.026;2023-10-31T09:20:21;93288.47;;;6.34;100.00
39223;BME280;24936;46.328;11.026;2023-10-31T09:22:46;93293.56;;;6.46;100.00
39223;BME280;24936;46.328;11.026;2023-10-31T09:25:12;93297.31;;;6.33;100.00
39223;BME280;24936;46.328;11.026;2023-10-31T09:27:40;93302.50;;;6.43;100.00
39223;BME280;24936;46.328;11.026;2023-10-31T09:30:06;93306.28;;;6.58;100.00
39223;BME280;24936;46.328;11.026;2023-10-31T09:32:31;93314.16;;;6.49;100.00
39223;BME280;24936;46.328;11.026;2023-10-31T09:34:57;93330.34;;;6.62;100.00
39223;BME280;24936;46.328;11.026;2023-10-31T09:37:23;93321.34;;;6.47;100.00
39223;BME280;24936;46.328;11.026;2023-10-31T09:39:57;93319.72;;;6.36;100.00
39223;BME280;24936;46.328;11.026;2023-10-31T09:42:22;93329.47;;;6.43;100.00
39223;BME280;24936;46.328;11.026;2023-10-31T09:44:48;93333.97;;;6.61;100.00
39223;BME280;24936;46.328;11.026;2023-10-31T09:47:15;93336.97;;;6.56;100.00
39223;BME280;24936;46.328;11.026;2023-10-31T09:49:40;93344.41;;;6.61;100.00
39223;BME280;24936;46.328;11.026;2023-10-31T09:52:06;93346.97;;;6.71;100.00
39223;BME280;24936;46.328;11.026;2023-10-31T09:54:33;93350.16;;;6.75;100.00
39223;BME280;24936;46.328;11.026;2023-10-31T09:56:59;93358.97;;;6.73;100.00
39223;BME280;24936;46.328;11.026;2023-10-31T09:59:24;93349.56;;;6.81;100.00
39223;BME280;24936;46.328;11.026;2023-10-31T10:01:50;93356.72;;;6.79;100.00
39223;BME280;24936;46.328;11.026;2023-10-31T10:04:15;93354.00;;;6.70;100.00
39223;BME280;24936;46.328;11.026;2023-10-31T10:06:50;93346.28;;;6.69;100.00
39223;BME280;24936;46.328;11.026;2023-10-31T10:09:16;93354.91;;;6.89;100.00
39223;BME280;24936;46.328;11.026;2023-10-31T10:11:41;93349.31;;;7.02;100.00
39223;BME280;24936;46.328;11.026;2023-10-31T10:14:07;93344.00;;;6.94;100.00
39223;BME280;24936;46.328;11.026;2023-10-31T10:16:35;93341.91;;;6.97;100.00
39223;BME280;24936;46.328;11.026;2023-10-31T10:19:20;93343.38;;;7.10;100.00
39223;BME280;24936;46.328;11.026;2023-10-31T10:21:57;93334.25;;;7.14;100.00
39223;BME280;24936;46.328;11.026;2023-10-31T10:24:23;93337.25;;;7.19;100.00
39223;BME280;24936;46.328;11.026;2023-10-31T10:26:50;93329.97;;;7.41;100.00
39223;BME280;24936;46.328;11.026;2023-10-31T10:29:16;93327.75;;;7.18;100.00
39223;BME280;24936;46.328;11.026;2023-10-31T10:31:43;93318.75;;;7.30;100.00
39223;BME280;24936;46.328;11.026;2023-10-31T10:34:09;93316.53;;;7.08;100.00
39223;BME280;24936;46.328;11.026;2023-10-31T10:36:35;93301.72;;;7.16;100.00
39223;BME280;24936;46.328;11.026;2023-10-31T10:39:01;93310.56;;;7.15;100.00
39223;BME280;24936;46.328;11.026;2023-10-31T10:41:27;93302.66;;;7.25;100.00
39223;BME280;24936;46.328;11.026;2023-10-31T10:46:28;93301.22;;;7.49;100.00
39223;BME280;24936;46.328;11.026;2023-10-31T10:48:58;93296.88;;;7.76;100.00
39223;BME280;24936;46.328;11.026;2023-10-31T10:51:29;93290.75;;;7.67;100.00
39223;BME280;24936;46.328;11.026;2023-10-31T10:54:09;93293.25;;;7.69;100.00
39223;BME280;24936;46.328;11.026;2023-10-31T10:56:44;93283.88;;;7.84;100.00
39223;BME280;24936;46.328;11.026;2023-10-31T10:59:18;93281.09;;;7.86;100.00
39223;BME280;24936;46.328;11.026;2023-10-31T11:01:46;93284.50;;;8.04;100.00
39223;BME280;24936;46.328;11.026;2023-10-31T11:04:15;93292.06;;;8.07;100.00
39223;BME280;24936;46.328;11.026;2023-10-31T11:06:42;93293.94;;;7.97;100.00
39223;BME280;24936;46.328;11.026;2023-10-31T11:09:09;93287.16;;;7.86;100.00
39223;BME280;24936;46.328;11.026;2023-10-31T11:11:37;93274.38;;;7.83;100.00
39223;BME280;24936;46.328;11.026;2023-10-31T11:14:03;93275.63;;;7.79;100.00
39223;BME280;24936;46.328;11.026;2023-10-31T11:17:00;93292.84;;;7.63;100.00
39223;BME280;24936;46.328;11.026;2023-10-31T11:19:28;93292.56;;;7.67;100.00
39223;BME280;24936;46.328;11.026;2023-10-31T11:21:58;93297.34;;;7.71;100.00
39223;BME280;24936;46.328;11.026;2023-10-31T11:24:36;93302.44;;;7.73;100.00
39223;BME280;24936;46.328;11.026;2023-10-31T11:27:04;93302.75;;;7.70;100.00
39223;BME280;24936;46.328;11.026;2023-10-31T11:29:31;93315.53;;;7.73;100.00
39223;BME280;24936;46.328;11.026;2023-10-31T11:31:57;93313.16;;;7.79;100.00
39223;BME280;24936;46.328;11.026;2023-10-31T11:34:23;93311.94;;;7.92;100.00
39223;BME280;24936;46.328;11.026;2023-10-31T11:36:51;93312.06;;;7.90;100.00
39223;BME280;24936;46.328;11.026;2023-10-31T11:39:21;93305.25;;;7.98;100.00
39223;BME280;24936;46.328;11.026;2023-10-31T11:41:55;93306.44;;;8.03;100.00
39223;BME280;24936;46.328;11.026;2023-10-31T11:44:27;93317.84;;;7.76;100.00
39223;BME280;24936;46.328;11.026;2023-10-31T11:46:53;93300.75;;;8.08;100.00
39223;BME280;24936;46.328;11.026;2023-10-31T11:49:47;93303.28;;;8.18;100.00
39223;BME280;24936;46.328;11.026;2023-10-31T11:52:16;93315.88;;;8.14;100.00
39223;BME280;24936;46.328;11.026;2023-10-31T11:54:42;93321.31;;;8.21;100.00
39223;BME280;24936;46.328;11.026;2023-10-31T11:57:07;93310.63;;;8.14;100.00
39223;BME280;24936;46.328;11.026;2023-10-31T11:59:39;93320.53;;;8.02;100.00
39223;BME280;24936;46.328;11.026;2023-10-31T12:02:14;93317.81;;;8.12;100.00
39223;BME280;24936;46.328;11.026;2023-10-31T12:04:40;93324.78;;;8.30;100.00
39223;BME280;24936;46.328;11.026;2023-10-31T12:07:06;93336.22;;;8.20;100.00
39223;BME280;24936;46.328;11.026;2023-10-31T12:09:31;93340.47;;;8.21;100.00
39223;BME280;24936;46.328;11.026;2023-10-31T12:11:57;93347.75;;;8.27;100.00
39223;BME280;24936;46.328;11.026;2023-10-31T12:14:22;93327.78;;;8.35;100.00
39223;BME280;24936;46.328;11.026;2023-10-31T12:16:48;93336.38;;;8.63;100.00
39223;BME280;24936;46.328;11.026;2023-10-31T12:19:13;93333.78;;;8.71;100.00
39223;BME280;24936;46.328;11.026;2023-10-31T12:21:42;93330.50;;;8.78;100.00
39223;BME280;24936;46.328;11.026;2023-10-31T12:24:12;93337.25;;;8.80;100.00
39223;BME280;24936;46.328;11.026;2023-10-31T12:26:38;93352.25;;;8.44;100.00
39223;BME280;24936;46.328;11.026;2023-10-31T12:29:13;93353.31;;;8.51;100.00
39223;BME280;24936;46.328;11.026;2023-10-31T12:31:50;93368.25;;;8.77;100.00
39223;BME280;24936;46.328;11.026;2023-10-31T12:34:19;93367.72;;;9.08;100.00
39223;BME280;24936;46.328;11.026;2023-10-31T12:36:46;93362.72;;;9.31;100.00
39223;BME280;24936;46.328;11.026;2023-10-31T12:39:12;93363.56;;;9.31;100.00
39223;BME280;24936;46.328;11.026;2023-10-31T12:41:39;93354.34;;;9.27;100.00
39223;BME280;24936;46.328;11.026;2023-10-31T12:44:06;93346.47;;;9.19;100.00
39223;BME280;24936;46.328;11.026;2023-10-31T12:46:35;93357.34;;;9.41;100.00
39223;BME280;24936;46.328;11.026;2023-10-31T12:49:03;93358.69;;;9.53;100.00